Greenville, Georgia
Current Conditions -  °F | °C
As of 8:15 PM on Saturday 25 Oct 2014 (Local Time) from KCCO Reporting Station
Clear Clear  
Wind Chill: 66°   Ceiling: Unl
Heat Index: 66°   Visibility: 10mi
Dew Point: 51°   Wind: 3mph
Humidity: 58%   Direction: 310°NW
Pressure: 30.04"   Gusts: NA
Location:  33.03°N, 84.71°W
Report Text: KCCO 260015Z AUTO 31003KT 10SM CLR 19/10 A3004 RMK AO2 T01870103
Loading
Personal Weather Stations






























Interactive Weather Map
Tropical Storm Tracking
New forecast layout! Learn more

10-Day Weather Forecast

Advertisements
Track Severe Weather on mobile